Time;durP1;ratioP1;P1;durP2;ratioP2;P2;SDS_P1;SDS_P2;PMS_P1;PMS_P2;Temp;Humidity;BMP_temperature;BMP_pressure;BME280_temperature;BME280_humidity;BME280_pressure;Samples;Min_cycle;Max_cycle;Signal;HPM_P1;HPM_P2
2022/11/19 00:00:21;;;;;;;;;;;;;;;23.29;43.57;94091.00;6099612;19;2073;-60
2022/11/19 00:02:24;;;;;;;;;;;;;;;23.34;43.71;94096.44;6121052;19;1927;-61
2022/11/19 00:04:27;;;;;;;;;;;;;;;23.32;43.66;94110.06;6122503;19;1733;-61
2022/11/19 00:06:31;;;;;;;;;;;;;;;23.21;43.40;94092.25;6120889;19;2086;-61
2022/11/19 00:08:34;;;;;;;;;;;;;;;23.19;43.61;94089.84;6122542;19;1739;-61
2022/11/19 00:10:37;;;;;;;;;;;;;;;23.22;43.83;94083.19;6121520;19;1983;-62
2022/11/19 00:14:59;;;;;;;;;;;;;;;23.22;43.88;94089.34;6120856;19;2126;-61
2022/11/19 00:17:02;;;;;;;;;;;;;;;23.24;43.68;94089.06;6121201;19;2095;-62
2022/11/19 00:19:06;;;;;;;;;;;;;;;23.26;43.85;94094.19;6119623;19;1861;-62
2022/11/19 00:21:10;;;;;;;;;;;;;;;23.20;43.52;94096.00;6119501;19;1920;-62
2022/11/19 00:23:13;;;;;;;;;;;;;;;23.21;44.05;94102.97;6093895;19;2077;-62
2022/11/19 00:25:17;;;;;;;;;;;;;;;23.20;43.82;94106.72;6119075;19;1823;-61
2022/11/19 00:27:20;;;;;;;;;;;;;;;23.25;43.78;94106.78;6118422;19;1995;-61
2022/11/19 00:29:23;;;;;;;;;;;;;;;23.23;43.91;94117.75;6119544;19;2078;-63
2022/11/19 00:31:29;;;;;;;;;;;;;;;23.27;43.38;94112.69;6119835;19;1920;-62
2022/11/19 00:33:33;;;;;;;;;;;;;;;23.26;43.69;94105.72;6119014;19;1940;-62
2022/11/19 00:35:36;;;;;;;;;;;;;;;23.24;43.97;94111.31;6091130;19;2251;-62
2022/11/19 00:37:39;;;;;;;;;;;;;;;23.26;43.69;94121.81;6119612;19;1766;-62
2022/11/19 00:39:43;;;;;;;;;;;;;;;23.26;43.58;94124.47;6117896;19;1062;-62
2022/11/19 00:41:46;;;;;;;;;;;;;;;23.28;43.76;94122.38;6118966;19;2227;-62
2022/11/19 00:43:47;;;;;;;;;;;;;;;23.24;43.68;94122.03;6119139;19;1931;-62
2022/11/19 00:45:51;;;;;;;;;;;;;;;23.18;44.85;94119.56;6108330;19;2174;-61
2022/11/19 00:47:56;;;;;;;;;;;;;;;23.22;44.62;94109.97;6105697;19;2262;-62
2022/11/19 00:50:00;;;;;;;;;;;;;;;23.20;44.29;94106.72;6118569;19;1984;-62
2022/11/19 00:52:03;;;;;;;;;;;;;;;23.24;44.52;94115.88;6120407;19;1924;-62
2022/11/19 00:54:07;;;;;;;;;;;;;;;23.26;44.29;94111.09;6119222;19;1849;-62
2022/11/19 00:56:11;;;;;;;;;;;;;;;23.26;44.59;94095.00;6118100;19;1924;-62
2022/11/19 00:58:14;;;;;;;;;;;;;;;23.26;44.46;94103.03;6094941;19;2062;-62
2022/11/19 01:00:18;;;;;;;;;;;;;;;23.21;44.40;94102.97;6118589;19;2089;-62
2022/11/19 01:02:21;;;;;;;;;;;;;;;23.23;44.63;94111.59;6118964;19;2112;-62
2022/11/19 01:04:27;;;;;;;;;;;;;;;23.24;44.65;94102.47;6118643;19;2030;-62
2022/11/19 01:06:31;;;;;;;;;;;;;;;23.24;44.86;94114.00;6117406;19;1121;-62
2022/11/19 01:08:34;;;;;;;;;;;;;;;23.22;44.74;94115.34;6107877;19;2213;-62
2022/11/19 01:10:37;;;;;;;;;;;;;;;23.27;44.53;94120.72;6105304;19;1917;-62
2022/11/19 01:13:33;;;;;;;;;;;;;;;23.24;45.08;94110.50;6119099;19;2098;-62
2022/11/19 01:15:05;;;;;;;;;;;;;;;23.23;44.83;94114.25;6118657;19;1915;-62
2022/11/19 01:17:08;;;;;;;;;;;;;;;23.25;45.52;94114.84;6119247;19;1872;-62
2022/11/19 01:19:15;;;;;;;;;;;;;;;23.24;45.21;94119.34;6118199;19;1950;-62
2022/11/19 01:21:22;;;;;;;;;;;;;;;23.28;44.90;94121.53;6091732;19;2194;-62
2022/11/19 01:23:25;;;;;;;;;;;;;;;23.26;44.76;94118.31;6124917;19;1809;-62
2022/11/19 01:25:28;;;;;;;;;;;;;;;23.20;45.09;94114.78;6123451;19;1987;-62
2022/11/19 01:27:33;;;;;;;;;;;;;;;23.24;45.23;94119.34;6127702;19;1977;-62
2022/11/19 01:29:36;;;;;;;;;;;;;;;23.23;45.04;94107.03;6124951;19;1902;-62
2022/11/19 01:31:39;;;;;;;;;;;;;;;23.21;45.22;94119.06;6112918;19;2078;-62
2022/11/19 01:33:43;;;;;;;;;;;;;;;23.19;45.19;94116.66;6109218;19;1910;-62
2022/11/19 01:35:46;;;;;;;;;;;;;;;23.26;44.82;94126.34;6123048;19;2113;-62
2022/11/19 01:37:53;;;;;;;;;;;;;;;23.23;45.06;94138.38;6126126;19;1907;-62
2022/11/19 01:39:56;;;;;;;;;;;;;;;23.26;44.94;94131.72;6124079;19;1898;-62
2022/11/19 01:41:59;;;;;;;;;;;;;;;23.24;44.54;94140.00;6122637;19;1909;-62
2022/11/19 01:44:03;;;;;;;;;;;;;;;23.24;44.66;94148.03;6096739;19;2138;-61
2022/11/19 01:46:07;;;;;;;;;;;;;;;23.23;44.77;94151.78;6124751;19;1996;-62
2022/11/19 01:48:13;;;;;;;;;;;;;;;23.19;44.83;94154.16;6124757;19;2005;-62
2022/11/19 01:50:17;;;;;;;;;;;;;;;23.20;44.96;94152.28;6124181;19;2026;-62
2022/11/19 01:52:20;;;;;;;;;;;;;;;23.24;45.12;94156.06;6124521;19;1652;-62
2022/11/19 01:54:28;;;;;;;;;;;;;;;23.20;44.82;94166.50;6116237;19;1842;-62
2022/11/19 01:56:32;;;;;;;;;;;;;;;23.20;45.30;94163.81;6108264;19;2253;-62
2022/11/19 01:58:37;;;;;;;;;;;;;;;23.16;45.56;94154.66;6126702;19;1986;-62
2022/11/19 02:00:41;;;;;;;;;;;;;;;23.16;45.33;94156.50;6123660;19;2137;-62
2022/11/19 02:02:44;;;;;;;;;;;;;;;23.19;45.58;94145.28;6124148;19;2094;-63
2022/11/19 02:04:50;;;;;;;;;;;;;;;23.18;45.59;94143.69;6124016;19;1846;-62
2022/11/19 02:06:54;;;;;;;;;;;;;;;23.18;45.45;94152.53;6096388;19;1748;-62
2022/11/19 02:08:57;;;;;;;;;;;;;;;23.22;45.49;94153.66;6124526;19;1560;-62
2022/11/19 02:11:07;;;;;;;;;;;;;;;23.25;45.24;94144.31;6123470;19;2097;-62
2022/11/19 02:13:20;;;;;;;;;;;;;;;23.22;45.13;94142.94;6124629;19;2129;-61
2022/11/19 02:15:27;;;;;;;;;;;;;;;23.14;45.46;94145.25;6121152;19;1844;-62
2022/11/19 02:17:38;;;;;;;;;;;;;;;23.13;45.70;94144.41;6111343;19;1925;-61
2022/11/19 02:20:04;;;;;;;;;;;;;;;23.16;45.24;94161.88;6110918;19;2148;-61
2022/11/19 02:22:17;;;;;;;;;;;;;;;23.12;45.42;94164.25;6125600;19;2052;-62
2022/11/19 02:24:35;;;;;;;;;;;;;;;23.18;45.50;94167.78;6120460;19;1937;-62
2022/11/19 02:26:59;;;;;;;;;;;;;;;23.18;45.20;94178.50;6121471;19;2294;-62
2022/11/19 02:29:09;;;;;;;;;;;;;;;23.17;45.07;94176.91;6112347;19;1831;-62
2022/11/19 02:31:18;;;;;;;;;;;;;;;23.17;45.25;94174.22;6122129;19;1984;-62
2022/11/19 02:33:25;;;;;;;;;;;;;;;23.19;45.06;94180.13;6124576;19;1857;-62
2022/11/19 02:35:37;;;;;;;;;;;;;;;23.20;45.29;94184.44;6119470;19;1672;-62
2022/11/19 02:37:43;;;;;;;;;;;;;;;23.23;44.99;94197.34;6122207;19;1998;-62
2022/11/19 02:39:50;;;;;;;;;;;;;;;23.23;44.76;94186.63;6120262;19;2137;-61
2022/11/19 02:41:57;;;;;;;;;;;;;;;23.22;44.93;94206.47;6104950;19;1869;-62
2022/11/19 02:46:22;;;;;;;;;;;;;;;23.23;45.37;94192.78;6120943;19;2516;-62
2022/11/19 02:48:29;;;;;;;;;;;;;;;23.20;44.95;94203.19;6120885;19;1894;-62
2022/11/19 02:50:34;;;;;;;;;;;;;;;23.23;45.11;94206.19;6121685;19;1046;-62
2022/11/19 02:52:38;;;;;;;;;;;;;;;23.21;45.33;94213.66;6093705;19;2113;-59
2022/11/19 02:54:42;;;;;;;;;;;;;;;23.20;45.83;94203.19;6121520;19;1869;-60
2022/11/19 02:56:50;;;;;;;;;;;;;;;23.21;45.88;94207.50;6118738;19;1953;-60
2022/11/19 03:05:48;;;;;;;;;;;;;;;23.23;45.65;94229.50;6121499;19;1642;-60
2022/11/19 03:07:52;;;;;;;;;;;;;;;23.25;45.60;94227.41;6121961;19;1942;-60
2022/11/19 03:09:56;;;;;;;;;;;;;;;23.24;45.92;94234.59;6119198;19;1058;-60
2022/11/19 03:12:03;;;;;;;;;;;;;;;23.24;45.85;94247.19;6123154;19;2089;-60
2022/11/19 03:16:41;;;;;;;;;;;;;;;23.16;46.17;94244.94;6108500;19;2115;-61
2022/11/19 03:18:51;;;;;;;;;;;;;;;23.18;45.70;94245.50;6121953;19;1802;-60
2022/11/19 03:20:57;;;;;;;;;;;;;;;23.18;45.84;94245.50;6120480;19;1829;-60
2022/11/19 03:23:04;;;;;;;;;;;;;;;23.16;46.06;94244.94;6122382;19;1945;-59
2022/11/19 03:25:10;;;;;;;;;;;;;;;23.17;46.05;94251.94;6119958;19;2037;-61
2022/11/19 03:27:17;;;;;;;;;;;;;;;23.15;45.82;94252.16;6095620;19;1988;-60
2022/11/19 03:29:22;;;;;;;;;;;;;;;23.17;45.58;94257.31;6119387;19;1730;-61
2022/11/19 03:31:28;;;;;;;;;;;;;;;23.14;45.92;94252.44;6120242;19;1980;-61
2022/11/19 03:33:33;;;;;;;;;;;;;;;23.17;45.94;94251.94;6120258;19;1252;-61
2022/11/19 03:35:41;;;;;;;;;;;;;;;23.18;45.72;94248.19;6120542;19;2185;-61
2022/11/19 03:37:48;;;;;;;;;;;;;;;23.21;45.64;94247.69;6105699;19;1943;-59
2022/11/19 03:39:53;;;;;;;;;;;;;;;23.22;46.03;94252.03;6115011;19;1936;-61
2022/11/19 03:41:58;;;;;;;;;;;;;;;23.18;46.13;94249.00;6120304;19;1896;-62
2022/11/19 03:44:03;;;;;;;;;;;;;;;23.22;45.68;94252.03;6118570;19;2110;-61
2022/11/19 03:46:08;;;;;;;;;;;;;;;23.26;45.75;94253.13;6118723;19;1854;-61
2022/11/19 03:48:13;;;;;;;;;;;;;;;23.19;45.69;94260.53;6119481;19;1041;-61
2022/11/19 03:50:18;;;;;;;;;;;;;;;23.09;46.04;94265.75;6093742;19;2155;-62
2022/11/19 03:52:24;;;;;;;;;;;;;;;23.20;45.83;94257.59;6123784;19;2055;-62
2022/11/19 03:54:28;;;;;;;;;;;;;;;23.23;45.82;94267.03;6121128;19;2118;-65
2022/11/19 03:56:32;;;;;;;;;;;;;;;23.30;46.12;94264.16;6123396;19;1704;-64
2022/11/19 03:58:39;;;;;;;;;;;;;;;23.33;46.10;94277.06;6123010;19;2080;-67
2022/11/19 04:00:42;;;;;;;;;;;;;;;23.33;45.88;94277.88;6101368;19;1831;-65
2022/11/19 04:02:46;;;;;;;;;;;;;;;23.27;46.17;94278.06;6116773;19;1998;-64
2022/11/19 04:04:49;;;;;;;;;;;;;;;23.23;46.18;94273.19;6120109;19;1287;-65
2022/11/19 04:06:52;;;;;;;;;;;;;;;23.22;46.09;94287.66;6122328;19;2179;-64
2022/11/19 04:08:58;;;;;;;;;;;;;;;23.22;46.27;94297.56;6121818;19;2130;-64
2022/11/19 04:11:01;;;;;;;;;;;;;;;23.29;45.64;94289.34;6119531;19;1132;-64
2022/11/19 04:13:05;;;;;;;;;;;;;;;23.28;45.97;94290.38;6093973;19;2091;-63
2022/11/19 04:15:09;;;;;;;;;;;;;;;23.27;45.66;94294.13;6118645;19;1949;-65
2022/11/19 04:17:12;;;;;;;;;;;;;;;23.28;45.61;94303.78;6122551;19;2079;-65
2022/11/19 04:19:16;;;;;;;;;;;;;;;23.26;45.89;94311.28;6118490;19;1037;-64
2022/11/19 04:21:19;;;;;;;;;;;;;;;23.25;45.75;94315.84;6118486;19;1715;-64
2022/11/19 04:23:23;;;;;;;;;;;;;;;23.26;45.74;94320.13;6107049;19;2107;-64
2022/11/19 04:25:29;;;;;;;;;;;;;;;23.24;45.62;94322.25;6107722;19;2227;-64
2022/11/19 04:27:32;;;;;;;;;;;;;;;23.24;45.32;94312.31;6121903;19;1722;-64
2022/11/19 04:29:35;;;;;;;;;;;;;;;23.23;45.39;94305.34;6119972;19;1908;-66
2022/11/19 04:31:39;;;;;;;;;;;;;;;23.20;45.66;94294.31;6121512;19;2096;-64
2022/11/19 04:33:42;;;;;;;;;;;;;;;23.22;45.61;94308.31;6120678;19;1926;-64
2022/11/19 04:35:46;;;;;;;;;;;;;;;23.18;45.98;94313.31;6092260;19;1952;-64
2022/11/19 04:37:49;;;;;;;;;;;;;;;23.20;45.98;94313.09;6121549;19;1997;-64
2022/11/19 04:39:52;;;;;;;;;;;;;;;23.24;45.55;94316.88;6122248;19;2077;-64
2022/11/19 04:41:58;;;;;;;;;;;;;;;23.22;45.45;94316.34;6119004;19;2099;-64
2022/11/19 04:44:02;;;;;;;;;;;;;;;23.20;45.53;94323.81;6117737;19;982;-65
2022/11/19 04:46:05;;;;;;;;;;;;;;;23.18;45.39;94320.53;6107371;19;2218;-64
2022/11/19 04:48:08;;;;;;;;;;;;;;;23.17;45.89;94318.94;6105750;19;1984;-64
2022/11/19 04:50:12;;;;;;;;;;;;;;;23.18;45.56;94324.03;6120848;19;1790;-65
2022/11/19 04:52:16;;;;;;;;;;;;;;;23.19;45.72;94340.91;6119970;19;1979;-63
2022/11/19 04:54:19;;;;;;;;;;;;;;;23.19;45.77;94343.59;6120574;19;2071;-64
2022/11/19 04:56:22;;;;;;;;;;;;;;;23.20;45.52;94342.56;6121119;19;1879;-66
2022/11/19 04:58:28;;;;;;;;;;;;;;;23.21;45.24;94338.81;6092524;19;2128;-65
2022/11/19 05:00:31;;;;;;;;;;;;;;;23.16;45.54;94346.78;6117601;19;1941;-65
2022/11/19 05:02:35;;;;;;;;;;;;;;;23.19;45.24;94340.91;6117682;19;1888;-64
2022/11/19 05:04:38;;;;;;;;;;;;;;;23.18;45.49;94363.44;6118145;19;1889;-64
2022/11/19 05:06:41;;;;;;;;;;;;;;;23.22;44.93;94364.59;6120309;19;2178;-64
2022/11/19 05:08:47;;;;;;;;;;;;;;;23.20;45.40;94374.72;6119396;19;1849;-64
2022/11/19 05:10:51;;;;;;;;;;;;;;;23.24;45.18;94383.88;6092640;19;2107;-64
2022/11/19 05:12:54;;;;;;;;;;;;;;;23.20;45.30;94390.81;6119316;19;2103;-64
2022/11/19 05:15:00;;;;;;;;;;;;;;;23.22;45.12;94402.09;6118976;19;1848;-64
2022/11/19 05:17:03;;;;;;;;;;;;;;;23.16;45.27;94408.41;6120878;19;1811;-64
2022/11/19 05:19:07;;;;;;;;;;;;;;;23.18;45.27;94419.72;6119741;19;2084;-65
2022/11/19 05:21:10;;;;;;;;;;;;;;;23.18;45.35;94420.50;6093519;19;1932;-66
2022/11/19 05:23:13;;;;;;;;;;;;;;;23.20;45.19;94420.28;6118099;19;1762;-64
2022/11/19 05:25:17;;;;;;;;;;;;;;;23.17;44.98;94437.66;6119660;19;2035;-65
2022/11/19 05:27:20;;;;;;;;;;;;;;;23.20;44.92;94439.84;6117669;19;1744;-66
2022/11/19 05:29:23;;;;;;;;;;;;;;;23.18;44.82;94441.94;6116075;19;1046;-65
2022/11/19 05:31:29;;;;;;;;;;;;;;;23.17;45.30;94442.22;6119181;19;1868;-64
2022/11/19 05:33:33;;;;;;;;;;;;;;;23.22;44.74;94440.44;6090808;19;1888;-66
2022/11/19 05:35:36;;;;;;;;;;;;;;;23.23;45.14;94438.56;6117306;19;1842;-64
2022/11/19 05:37:39;;;;;;;;;;;;;;;23.22;45.07;94439.63;6119203;19;1944;-65
2022/11/19 05:39:42;;;;;;;;;;;;;;;23.20;44.77;94437.16;6115446;19;1253;-65
2022/11/19 05:41:46;;;;;;;;;;;;;;;23.22;44.74;94450.34;6116124;19;1940;-65
2022/11/19 05:43:49;;;;;;;;;;;;;;;23.21;44.86;94451.38;6103264;19;1983;-65
2022/11/19 05:45:52;;;;;;;;;;;;;;;23.18;44.90;94449.19;6106707;19;2087;-64
2022/11/19 05:47:58;;;;;;;;;;;;;;;23.20;45.15;94455.13;6118571;19;1849;-65
2022/11/19 05:50:02;;;;;;;;;;;;;;;23.15;45.17;94466.56;6116108;19;1910;-64
2022/11/19 05:52:06;;;;;;;;;;;;;;;23.16;45.07;94475.41;6117310;19;2055;-64
2022/11/19 05:54:09;;;;;;;;;;;;;;;23.15;44.43;94484.50;6117076;19;1920;-64
2022/11/19 05:56:12;;;;;;;;;;;;;;;23.15;44.60;94489.88;6090610;19;2081;-65
2022/11/19 05:58:16;;;;;;;;;;;;;;;23.15;44.28;94495.22;6119731;19;1916;-65
2022/11/19 06:00:19;;;;;;;;;;;;;;;23.15;44.46;94490.69;6115021;19;2185;-64
2022/11/19 06:02:23;;;;;;;;;;;;;;;23.14;44.26;94489.06;6115838;19;1960;-64
2022/11/19 06:04:28;;;;;;;;;;;;;;;23.14;43.89;94483.69;6115661;19;1484;-64
2022/11/19 06:06:32;;;;;;;;;;;;;;;23.12;44.22;94485.00;6105921;19;1930;-64
2022/11/19 06:08:35;;;;;;;;;;;;;;;23.10;43.93;94484.41;6102937;19;2175;-64
2022/11/19 06:10:38;;;;;;;;;;;;;;;23.09;44.04;94486.28;6122920;19;2082;-64
2022/11/19 06:12:43;;;;;;;;;;;;;;;23.10;43.92;94495.13;6125384;19;2089;-64
2022/11/19 06:14:46;;;;;;;;;;;;;;;23.06;44.02;94488.63;6120933;19;1845;-64
2022/11/19 06:16:50;;;;;;;;;;;;;;;23.08;43.74;94494.56;6123078;19;1818;-64
2022/11/19 06:18:53;;;;;;;;;;;;;;;23.06;44.07;94507.41;6099409;19;2107;-64
2022/11/19 06:20:59;;;;;;;;;;;;;;;23.07;43.37;94514.38;6124006;19;2012;-64
2022/11/19 06:23:02;;;;;;;;;;;;;;;23.05;43.95;94524.50;6122747;19;1850;-66
2022/11/19 06:25:06;;;;;;;;;;;;;;;23.04;43.43;94536.28;6121888;19;1831;-65
2022/11/19 06:27:10;;;;;;;;;;;;;;;23.06;43.62;94544.91;6126199;19;2037;-64
2022/11/19 06:29:14;;;;;;;;;;;;;;;23.06;43.06;94548.41;6117027;19;1768;-63
2022/11/19 06:31:17;;;;;;;;;;;;;;;23.10;43.39;94554.09;6106055;19;1847;-63
2022/11/19 06:33:21;;;;;;;;;;;;;;;23.08;43.03;94550.81;6123315;19;1746;-65
2022/11/19 06:35:24;;;;;;;;;;;;;;;23.04;43.13;94541.66;6120915;19;1859;-65
2022/11/19 06:37:30;;;;;;;;;;;;;;;23.02;43.31;94549.91;6120246;19;1616;-63
2022/11/19 06:39:33;;;;;;;;;;;;;;;23.02;43.19;94553.44;6123001;19;1848;-64
2022/11/19 06:41:37;;;;;;;;;;;;;;;22.98;43.36;94552.25;6097222;19;2103;-64
2022/11/19 06:43:41;;;;;;;;;;;;;;;23.02;43.08;94564.16;6119985;19;1434;-64
2022/11/19 06:45:44;;;;;;;;;;;;;;;22.99;42.92;94561.94;6120114;19;1692;-64
2022/11/19 06:47:49;;;;;;;;;;;;;;;23.02;42.80;94563.31;6125135;19;1932;-64
2022/11/19 06:49:52;;;;;;;;;;;;;;;23.02;43.05;94576.69;6121164;19;2082;-64
2022/11/19 06:51:55;;;;;;;;;;;;;;;23.04;43.09;94579.97;6121791;19;1870;-65
2022/11/19 06:54:01;;;;;;;;;;;;;;;23.04;43.06;94579.97;6093935;19;1654;-63
2022/11/19 06:56:06;;;;;;;;;;;;;;;23.06;42.97;94575.19;6120119;19;1854;-65
2022/11/19 06:58:09;;;;;;;;;;;;;;;23.05;42.90;94586.13;6122184;19;2114;-66
2022/11/19 07:00:14;;;;;;;;;;;;;;;23.03;42.54;94589.06;6119116;19;1752;-64
2022/11/19 07:02:18;;;;;;;;;;;;;;;23.01;42.55;94581.25;6120652;19;1693;-66
2022/11/19 07:04:21;;;;;;;;;;;;;;;23.03;42.71;94583.72;6097627;19;1670;-64
2022/11/19 07:06:25;;;;;;;;;;;;;;;23.03;42.48;94589.06;6119922;19;2608;-65
2022/11/19 07:08:32;;;;;;;;;;;;;;;23.06;42.87;94585.09;6117942;19;1140;-64
2022/11/19 07:10:38;;;;;;;;;;;;;;;23.09;43.28;94581.94;6119889;19;1094;-65
2022/11/19 07:12:41;;;;;;;;;;;;;;;23.19;42.82;94590.16;6121383;19;1025;-65
2022/11/19 07:14:44;;;;;;;;;;;;;;;23.17;43.31;94589.63;6121076;19;1647;-66
2022/11/19 07:16:48;;;;;;;;;;;;;;;23.17;43.08;94590.41;6094111;19;1957;-65
2022/11/19 07:18:51;;;;;;;;;;;;;;;23.20;43.18;94586.47;6121832;19;1026;-64
2022/11/19 07:20:54;;;;;;;;;;;;;;;23.13;42.93;94578.53;6121445;19;1287;-63
2022/11/19 07:22:57;;;;;;;;;;;;;;;23.15;43.04;94586.34;6117338;19;1160;-64
2022/11/19 07:25:01;;;;;;;;;;;;;;;23.17;43.60;94584.25;6119035;19;1050;-64
2022/11/19 07:27:07;;;;;;;;;;;;;;;23.18;43.29;94583.19;6095928;19;1531;-64
2022/11/19 07:29:10;;;;;;;;;;;;;;;23.17;43.42;94579.69;6117905;19;1601;-65
2022/11/19 07:31:14;;;;;;;;;;;;;;;23.20;43.57;94583.78;6118496;19;1113;-65
2022/11/19 07:33:17;;;;;;;;;;;;;;;23.20;43.31;94581.91;6119657;19;1050;-64
2022/11/19 07:35:20;;;;;;;;;;;;;;;23.23;43.59;94588.66;6118400;19;1835;-65
2022/11/19 07:37:23;;;;;;;;;;;;;;;23.23;43.57;94594.00;6117570;19;1128;-65
2022/11/19 07:39:27;;;;;;;;;;;;;;;23.17;43.68;94597.66;6092129;19;2026;-65
2022/11/19 07:43:48;;;;;;;;;;;;;;;23.22;43.69;94592.41;6119566;19;953;-65
2022/11/19 07:45:51;;;;;;;;;;;;;;;23.23;43.53;94594.81;6119908;19;1045;-65
2022/11/19 07:47:55;;;;;;;;;;;;;;;23.21;43.82;94598.78;6119764;19;1125;-65
2022/11/19 07:49:58;;;;;;;;;;;;;;;23.23;43.32;94613.59;6105546;19;1149;-65
2022/11/19 07:52:01;;;;;;;;;;;;;;;23.21;43.47;94606.84;6109332;19;1981;-65
2022/11/19 07:54:05;;;;;;;;;;;;;;;23.20;43.89;94605.22;6117895;19;983;-65
2022/11/19 07:56:08;;;;;;;;;;;;;;;23.23;43.90;94596.69;6118620;19;1883;-63
2022/11/19 07:58:12;;;;;;;;;;;;;;;23.24;43.48;94601.00;6117728;19;971;-63
2022/11/19 08:00:18;;;;;;;;;;;;;;;23.20;43.76;94602.53;6117013;19;979;-64
2022/11/19 08:02:21;;;;;;;;;;;;;;;23.16;44.12;94599.53;6092133;19;2231;-65
2022/11/19 08:04:25;;;;;;;;;;;;;;;23.20;44.07;94598.00;6118932;19;1113;-64
2022/11/19 08:06:29;;;;;;;;;;;;;;;23.26;43.56;94612.31;6119242;19;2190;-65
2022/11/19 08:08:32;;;;;;;;;;;;;;;23.22;43.55;94611.97;6120335;19;2067;-65
2022/11/19 08:10:36;;;;;;;;;;;;;;;23.28;43.31;94615.56;6121999;19;1822;-65
2022/11/19 08:12:40;;;;;;;;;;;;;;;23.28;43.55;94631.66;6108700;19;2070;-65
2022/11/19 08:14:43;;;;;;;;;;;;;;;23.27;43.58;94637.22;6103365;19;1592;-65
2022/11/19 08:19:06;;;;;;;;;;;;;;;23.25;43.66;94637.50;6121154;19;2124;-64
2022/11/19 08:21:10;;;;;;;;;;;;;;;23.31;43.79;94636.53;6116871;19;2115;-64
2022/11/19 08:23:13;;;;;;;;;;;;;;;23.31;43.54;94649.94;6116392;19;1513;-64
2022/11/19 08:25:17;;;;;;;;;;;;;;;23.35;43.50;94639.53;6093334;19;2141;-64
2022/11/19 08:27:20;;;;;;;;;;;;;;;23.37;43.67;94643.63;6121074;19;1897;-64
2022/11/19 08:29:24;;;;;;;;;;;;;;;23.37;43.61;94648.16;6116414;19;1134;-64
2022/11/19 08:31:27;;;;;;;;;;;;;;;23.37;43.46;94653.53;6120182;19;1963;-65
2022/11/19 08:33:33;;;;;;;;;;;;;;;22.91;41.91;94640.00;6119820;19;1871;-64
2022/11/19 08:35:36;;;;;;;;;;;;;;;22.46;42.52;94645.13;6107480;19;2059;-63
2022/11/19 08:37:39;;;;;;;;;;;;;;;22.21;42.38;94650.69;6104161;19;2146;-63
2022/11/19 08:39:43;;;;;;;;;;;;;;;22.38;42.31;94651.63;6116617;19;1073;-64
2022/11/19 08:44:02;;;;;;;;;;;;;;;22.97;42.41;94649.78;6116597;19;1704;-64
2022/11/19 08:46:05;;;;;;;;;;;;;;;23.09;41.93;94647.06;6118229;19;2062;-64
2022/11/19 08:48:12;;;;;;;;;;;;;;;23.15;41.99;94650.66;6090354;19;1774;-64
2022/11/19 08:50:18;;;;;;;;;;;;;;;23.18;41.95;94650.19;6116586;19;1006;-64
2022/11/19 08:52:21;;;;;;;;;;;;;;;23.18;42.08;94652.88;6117923;19;2139;-62
2022/11/19 08:54:24;;;;;;;;;;;;;;;23.18;41.84;94651.00;6118447;19;2087;-64
2022/11/19 08:56:28;;;;;;;;;;;;;;;23.20;41.86;94645.41;6117475;19;1864;-63
2022/11/19 08:58:31;;;;;;;;;;;;;;;23.20;41.96;94648.09;6102700;19;1176;-64
2022/11/19 09:00:35;;;;;;;;;;;;;;;23.18;42.18;94642.16;6103840;19;1239;-64
2022/11/19 09:02:39;;;;;;;;;;;;;;;23.17;42.16;94644.03;6119656;19;2025;-64
2022/11/19 09:04:42;;;;;;;;;;;;;;;23.25;42.25;94656.25;6117662;19;2062;-65
2022/11/19 09:06:48;;;;;;;;;;;;;;;23.29;41.86;94661.94;6116626;19;1056;-65
2022/11/19 09:08:51;;;;;;;;;;;;;;;23.29;41.83;94664.63;6118471;19;1996;-65
2022/11/19 09:10:54;;;;;;;;;;;;;;;23.28;42.01;94636.16;6092118;19;2157;-64
2022/11/19 09:12:58;;;;;;;;;;;;;;;23.32;42.17;94656.91;6113294;19;2114;-64
2022/11/19 09:15:01;;;;;;;;;;;;;;;23.31;42.27;94668.69;6114123;19;1828;-64
2022/11/19 09:17:04;;;;;;;;;;;;;;;23.33;42.18;94671.13;6117977;19;2220;-64
2022/11/19 09:19:08;;;;;;;;;;;;;;;23.35;42.07;94666.34;6120542;19;2152;-64
2022/11/19 09:21:12;;;;;;;;;;;;;;;23.31;41.92;94666.03;6115956;19;1030;-63
2022/11/19 09:23:18;;;;;;;;;;;;;;;23.35;42.34;94669.84;6091631;19;2221;-64
2022/11/19 09:25:21;;;;;;;;;;;;;;;23.34;42.28;94662.06;6117634;19;1070;-65
2022/11/19 09:27:24;;;;;;;;;;;;;;;23.34;42.06;94665.53;6117323;19;2099;-64
2022/11/19 09:29:28;;;;;;;;;;;;;;;23.36;42.25;94660.78;6117905;19;1050;-66
2022/11/19 09:31:31;;;;;;;;;;;;;;;23.37;42.40;94656.22;6119103;19;2076;-66
2022/11/19 09:33:35;;;;;;;;;;;;;;;23.35;42.16;94651.06;6104101;19;2174;-65
2022/11/19 09:35:38;;;;;;;;;;;;;;;23.35;42.55;94645.72;6109616;19;1939;-63
2022/11/19 09:37:42;;;;;;;;;;;;;;;23.32;42.48;94640.84;6118694;19;1849;-64
2022/11/19 09:39:48;;;;;;;;;;;;;;;23.32;42.29;94635.47;6118746;19;1910;-64
2022/11/19 09:41:53;;;;;;;;;;;;;;;23.36;42.39;94641.16;6118951;19;2035;-65
2022/11/19 09:44:00;;;;;;;;;;;;;;;23.37;42.34;94632.91;6120715;19;1905;-63
2022/11/19 09:46:06;;;;;;;;;;;;;;;23.39;42.56;94621.91;6096021;19;1993;-65
2022/11/19 09:48:20;;;;;;;;;;;;;;;23.40;42.18;94632.41;6123762;19;2052;-64
2022/11/19 09:50:26;;;;;;;;;;;;;;;23.38;42.08;94629.16;6121604;19;2085;-65
2022/11/19 09:52:33;;;;;;;;;;;;;;;23.39;42.52;94622.75;6126383;19;1925;-63
2022/11/19 09:54:36;;;;;;;;;;;;;;;23.38;42.62;94606.91;6120880;19;982;-65
2022/11/19 09:56:44;;;;;;;;;;;;;;;23.34;42.49;94593.16;6105370;19;1857;-63
2022/11/19 09:58:47;;;;;;;;;;;;;;;23.36;42.40;94583.03;6118848;19;2075;-64
2022/11/19 10:00:51;;;;;;;;;;;;;;;23.37;42.45;94590.00;6123648;19;1801;-63
2022/11/19 10:02:55;;;;;;;;;;;;;;;23.40;42.68;94592.19;6122394;19;2020;-64
2022/11/19 10:04:58;;;;;;;;;;;;;;;23.41;42.46;94582.28;6121223;19;1851;-64
2022/11/19 10:07:06;;;;;;;;;;;;;;;23.43;42.26;94575.66;6120734;19;1123;-64
2022/11/19 10:09:31;;;;;;;;;;;;;;;23.45;42.46;94586.97;6095373;19;1641;-64
2022/11/19 10:11:39;;;;;;;;;;;;;;;23.46;42.49;94593.94;6122961;19;1709;-64
2022/11/19 10:13:51;;;;;;;;;;;;;;;23.48;42.33;94588.34;6121249;19;1568;-64
2022/11/19 10:16:04;;;;;;;;;;;;;;;23.50;42.33;94567.47;6124578;19;1718;-64
2022/11/19 10:18:14;;;;;;;;;;;;;;;23.52;42.21;94565.34;6120922;19;1877;-62
2022/11/19 10:20:27;;;;;;;;;;;;;;;23.53;42.26;94560.81;6095780;19;1896;-66
2022/11/19 10:22:37;;;;;;;;;;;;;;;23.49;42.36;94559.69;6120765;19;1882;-63
2022/11/19 10:24:43;;;;;;;;;;;;;;;23.44;42.22;94569.22;6123353;19;1976;-62
2022/11/19 10:26:50;;;;;;;;;;;;;;;23.41;42.62;94568.88;6119412;19;1964;-63
2022/11/19 10:28:58;;;;;;;;;;;;;;;23.39;42.10;94577.19;6120555;19;1835;-63
2022/11/19 10:31:09;;;;;;;;;;;;;;;23.37;42.45;94584.63;6107278;19;1902;-63
2022/11/19 10:33:16;;;;;;;;;;;;;;;23.36;42.06;94572.28;6111362;19;2016;-60
2022/11/19 10:35:21;;;;;;;;;;;;;;;23.43;42.23;94562.25;6120853;19;1846;-64
2022/11/19 10:37:25;;;;;;;;;;;;;;;23.46;41.74;94560.97;6122269;19;2433;-65
2022/11/19 10:39:31;;;;;;;;;;;;;;;23.48;41.89;94555.34;6118599;19;1084;-63
2022/11/19 10:41:37;;;;;;;;;;;;;;;23.46;41.83;94551.03;6118769;19;1729;-64
2022/11/19 10:43:46;;;;;;;;;;;;;;;23.49;41.93;94560.47;6093072;19;2042;-64
2022/11/19 10:45:52;;;;;;;;;;;;;;;23.49;41.79;94559.69;6118768;19;1030;-64
2022/11/19 10:47:59;;;;;;;;;;;;;;;23.51;41.56;94562.94;6120545;19;977;-66
2022/11/19 10:50:02;;;;;;;;;;;;;;;23.51;41.76;94562.94;6119836;19;2127;-65
2022/11/19 10:52:06;;;;;;;;;;;;;;;23.48;41.80;94549.97;6124028;19;1920;-64
2022/11/19 10:54:20;;;;;;;;;;;;;;;23.48;41.79;94544.63;6106838;19;1897;-64
2022/11/19 10:56:24;;;;;;;;;;;;;;;23.49;41.47;94548.94;6113974;19;1893;-65
2022/11/19 10:58:30;;;;;;;;;;;;;;;23.45;41.59;94546.75;6120548;19;1860;-66
2022/11/19 11:00:34;;;;;;;;;;;;;;;23.49;42.05;94535.53;6119803;19;2086;-65
2022/11/19 11:02:44;;;;;;;;;;;;;;;23.48;41.97;94536.56;6119735;19;1996;-65
2022/11/19 11:05:02;;;;;;;;;;;;;;;23.49;42.02;94538.22;6121419;19;1879;-64
2022/11/19 11:07:06;;;;;;;;;;;;;;;23.46;42.28;94543.00;6093701;19;1916;-64
2022/11/19 11:09:12;;;;;;;;;;;;;;;23.52;41.86;94538.53;6119984;19;1865;-64
2022/11/19 11:11:21;;;;;;;;;;;;;;;23.54;41.93;94546.38;6122230;19;1755;-65
2022/11/19 11:15:44;;;;;;;;;;;;;;;23.57;41.99;94535.16;6122591;19;1885;-64
2022/11/19 11:17:51;;;;;;;;;;;;;;;23.53;42.18;94523.25;6094229;19;2100;-64
2022/11/19 11:19:58;;;;;;;;;;;;;;;23.51;42.08;94523.53;6120133;19;2267;-64
2022/11/19 11:22:01;;;;;;;;;;;;;;;23.55;42.40;94523.84;6121440;19;1928;-64